WXM80 ListenWXM80 Stop

You find our weather info also at:

UK Metoffice

WeatherCloud

Weather Underground

Northeastern Weather Network

AWEKAS

Citizen Weather Observer Program (CWOP)

HAMweather, WeatherForYou, PWS Weather


Weather Underground History page Text

Daily Summary for July 25, 2017 Units:  Both    English   Metric
« Previous Day
Next Day »
Daily Weekly Monthly Yearly Custom
  High: Low: Average:
Temperature: 71.7 °F /  22.1 °C 62.4 °F /  16.9 °C 65.7 °F /  18.7 °C
Dew Point: 63.6 °F /  17.6 °C 59.7 °F /  15.4 °C 61 °F /  16.1 °C
Humidity: 91 % 73 % 85 %
Wind Speed: 4.4 mph /  7.1 km/h - 0.6 mph /  1 km/h
Wind Gust: 8.1 mph /  13 km/h - -
Wind:- - ENE
Pressure: 30.18 in /  1021.9 hPa 29.92 in /  1013.1 hPa -
Precipitation: 0.07 in /  1.78 mm    
Historical Graphs
 
 
Tabular Data for July 25, 2017
Time Temperature Dew Point Pressure Wind Wind Speed Wind Gust Humidity Rainfall Rate (Hourly)
00:00 63.3 °F /  17.4 °C 59.7 °F /  15.4 °C 29.92 in /  1013.1 hPa ENE 3.6 mph /  5.8 km/h 4.6 mph /  7.4 km/h 88 % 0.00 in /  0 mm
00:05 63.3 °F /  17.4 °C 59.7 °F /  15.4 °C 29.92 in /  1013.1 hPa East 2.3 mph /  3.7 km/h 8.1 mph /  13 km/h 88 % 0.00 in /  0 mm
00:10 63.4 °F /  17.4 °C 60.1 °F /  15.6 °C 29.92 in /  1013.1 hPa ENE 1.2 mph /  1.9 km/h 3.5 mph /  5.6 km/h 89 % 0.00 in /  0 mm
00:15 63.4 °F /  17.4 °C 59.8 °F /  15.4 °C 29.92 in /  1013.1 hPa ENE 2.4 mph /  3.9 km/h 6.9 mph /  11.1 km/h 88 % 0.01 in /  0.25 mm
00:20 63.3 °F /  17.4 °C 60.0 °F /  15.6 °C 29.92 in /  1013.1 hPa ENE 3.3 mph /  5.3 km/h 6.9 mph /  11.1 km/h 89 % 0.01 in /  0.25 mm
00:25 63.3 °F /  17.4 °C 59.7 °F /  15.4 °C 29.92 in /  1013.1 hPa ENE 1.8 mph /  2.9 km/h 3.5 mph /  5.6 km/h 88 % 0.01 in /  0.25 mm
00:30 63.3 °F /  17.4 °C 60.0 °F /  15.6 °C 29.92 in /  1013.1 hPa ENE 1.0 mph /  1.6 km/h 2.3 mph /  3.7 km/h 89 % 0.01 in /  0.25 mm
00:35 63.3 °F /  17.4 °C 60.0 °F /  15.6 °C 29.92 in /  1013.1 hPa ENE 0.5 mph /  0.8 km/h 3.5 mph /  5.6 km/h 89 % 0.01 in /  0.25 mm
00:40 63.3 °F /  17.4 °C 60.0 °F /  15.6 °C 29.92 in /  1013.1 hPa ENE 0.6 mph /  1 km/h 2.3 mph /  3.7 km/h 89 % 0.01 in /  0.25 mm
00:45 63.4 °F /  17.4 °C 60.1 °F /  15.6 °C 29.92 in /  1013.1 hPa ENE 1.2 mph /  1.9 km/h 2.3 mph /  3.7 km/h 89 % 0.01 in /  0.25 mm
00:50 63.4 °F /  17.4 °C 60.1 °F /  15.6 °C 29.92 in /  1013.1 hPa ENE 1.3 mph /  2.1 km/h 3.5 mph /  5.6 km/h 89 % 0.01 in /  0.25 mm
00:55 63.3 °F /  17.4 °C 60.0 °F /  15.6 °C 29.92 in /  1013.1 hPa NE 1.3 mph /  2.1 km/h 3.5 mph /  5.6 km/h 89 % 0.01 in /  0.25 mm
01:00 63.4 °F /  17.4 °C 60.1 °F /  15.6 °C 29.93 in /  1013.4 hPa ENE 0.8 mph /  1.3 km/h 2.3 mph /  3.7 km/h 89 % 0.01 in /  0.25 mm
01:05 63.4 °F /  17.4 °C 60.4 °F /  15.8 °C 29.93 in /  1013.4 hPa ENE 0.5 mph /  0.8 km/h 2.3 mph /  3.7 km/h 90 % 0.01 in /  0.25 mm
01:10 63.4 °F /  17.4 °C 60.4 °F /  15.8 °C 29.93 in /  1013.4 hPa ENE 0.7 mph /  1.1 km/h 2.3 mph /  3.7 km/h 90 % 0.01 in /  0.25 mm
01:15 63.4 °F /  17.4 °C 60.1 °F /  15.6 °C 29.93 in /  1013.4 hPa ENE 0.6 mph /  1 km/h 3.5 mph /  5.6 km/h 89 % 0.00 in /  0 mm
01:21 63.3 °F /  17.4 °C 60.0 °F /  15.6 °C 29.93 in /  1013.4 hPa ENE 1.0 mph /  1.6 km/h 2.0 mph /  3.2 km/h 89 % 0.00 in /  0 mm
01:26 63.3 °F /  17.4 °C 60.0 °F /  15.6 °C 29.92 in /  1013.1 hPa ENE 3.0 mph /  4.8 km/h 5.0 mph /  8 km/h 89 % 0.00 in /  0 mm
01:31 63.3 °F /  17.4 °C 60.0 °F /  15.6 °C 29.93 in /  1013.4 hPa ENE 1.0 mph /  1.6 km/h 3.0 mph /  4.8 km/h 89 % 0.00 in /  0 mm
01:36 63.3 °F /  17.4 °C 60.0 °F /  15.6 °C 29.94 in /  1013.8 hPa ENE 1.0 mph /  1.6 km/h 2.0 mph /  3.2 km/h 89 % 0.00 in /  0 mm
01:41 63.3 °F /  17.4 °C 60.0 °F /  15.6 °C 29.94 in /  1013.8 hPa East 1.0 mph /  1.6 km/h 3.0 mph /  4.8 km/h 89 % 0.01 in /  0.25 mm
01:46 63.2 °F /  17.3 °C 59.9 °F /  15.5 °C 29.94 in /  1013.8 hPa ENE 0.5 mph /  0.8 km/h 2.3 mph /  3.7 km/h 89 % 0.01 in /  0.25 mm
01:51 63.2 °F /  17.3 °C 60.2 °F /  15.7 °C 29.94 in /  1013.8 hPa ENE 0.7 mph /  1.1 km/h 2.3 mph /  3.7 km/h 90 % 0.01 in /  0.25 mm
01:56 63.2 °F /  17.3 °C 60.2 °F /  15.7 °C 29.94 in /  1013.8 hPa ENE 0.1 mph /  0.2 km/h 1.2 mph /  1.9 km/h 90 % 0.01 in /  0.25 mm
02:01 63.2 °F /  17.3 °C 60.2 °F /  15.7 °C 29.95 in /  1014.1 hPa ENE 0.4 mph /  0.6 km/h 1.2 mph /  1.9 km/h 90 % 0.01 in /  0.25 mm
02:06 63.2 °F /  17.3 °C 60.2 °F /  15.7 °C 29.95 in /  1014.1 hPa ENE 0.3 mph /  0.5 km/h 1.2 mph /  1.9 km/h 90 % 0.01 in /  0.25 mm
02:11 63.2 °F /  17.3 °C 60.2 °F /  15.7 °C 29.95 in /  1014.1 hPa ESE 0.6 mph /  1 km/h 2.0 mph /  3.2 km/h 90 % 0.01 in /  0.25 mm
02:16 63.1 °F /  17.3 °C 59.8 °F /  15.4 °C 29.94 in /  1013.8 hPa East 0.7 mph /  1.1 km/h 2.3 mph /  3.7 km/h 89 % 0.01 in /  0.25 mm
02:21 63.1 °F /  17.3 °C 60.1 °F /  15.6 °C 29.94 in /  1013.8 hPa East 0.2 mph /  0.3 km/h 2.3 mph /  3.7 km/h 90 % 0.01 in /  0.25 mm
02:26 63.0 °F /  17.2 °C 60.0 °F /  15.6 °C 29.94 in /  1013.8 hPa East 0.4 mph /  0.6 km/h 1.2 mph /  1.9 km/h 90 % 0.01 in /  0.25 mm
02:31 62.9 °F /  17.2 °C 59.9 °F /  15.5 °C 29.93 in /  1013.4 hPa East 1.6 mph /  2.6 km/h 3.5 mph /  5.6 km/h 90 % 0.01 in /  0.25 mm
02:36 62.8 °F /  17.1 °C 60.1 °F /  15.6 °C 29.94 in /  1013.8 hPa East 0.3 mph /  0.5 km/h 1.2 mph /  1.9 km/h 91 % 0.01 in /  0.25 mm
02:41 62.7 °F /  17.1 °C 60.0 °F /  15.6 °C 29.94 in /  1013.8 hPa East 0.3 mph /  0.5 km/h 1.2 mph /  1.9 km/h 91 % 0.00 in /  0 mm
02:46 62.7 °F /  17.1 °C 60.0 °F /  15.6 °C 29.94 in /  1013.8 hPa East 0.4 mph /  0.6 km/h 2.3 mph /  3.7 km/h 91 % 0.00 in /  0 mm
02:51 62.6 °F /  17 °C 59.9 °F /  15.5 °C 29.94 in /  1013.8 hPa Calm     91 % 0.00 in /  0 mm
02:56 62.6 °F /  17 °C 59.9 °F /  15.5 °C 29.94 in /  1013.8 hPa East 0.4 mph /  0.6 km/h 1.2 mph /  1.9 km/h 91 % 0.00 in /  0 mm
03:01 62.5 °F /  16.9 °C 59.8 °F /  15.4 °C 29.94 in /  1013.8 hPa East 0.1 mph /  0.2 km/h 1.2 mph /  1.9 km/h 91 % 0.00 in /  0 mm
03:06 62.5 °F /  16.9 °C 59.8 °F /  15.4 °C 29.94 in /  1013.8 hPa East 0.2 mph /  0.3 km/h 1.2 mph /  1.9 km/h 91 % 0.00 in /  0 mm
03:11 62.5 °F /  16.9 °C 59.8 °F /  15.4 °C 29.94 in /  1013.8 hPa Calm   1.2 mph /  1.9 km/h 91 % 0.00 in /  0 mm
03:16 62.5 °F /  16.9 °C 59.8 °F /  15.4 °C 29.94 in /  1013.8 hPa Calm   1.2 mph /  1.9 km/h 91 % 0.00 in /  0 mm
03:21 62.5 °F /  16.9 °C 59.8 °F /  15.4 °C 29.95 in /  1014.1 hPa Calm     91 % 0.00 in /  0 mm
03:26 62.5 °F /  16.9 °C 59.8 °F /  15.4 °C 29.94 in /  1013.8 hPa East 0.2 mph /  0.3 km/h 1.2 mph /  1.9 km/h 91 % 0.01 in /  0.25 mm
03:31 62.5 °F /  16.9 °C 59.8 °F /  15.4 °C 29.94 in /  1013.8 hPa Calm     91 % 0.01 in /  0.25 mm
03:36 62.5 °F /  16.9 °C 59.8 °F /  15.4 °C 29.93 in /  1013.4 hPa East 0.1 mph /  0.2 km/h 1.2 mph /  1.9 km/h 91 % 0.01 in /  0.25 mm
03:42 62.5 °F /  16.9 °C 59.8 °F /  15.4 °C 29.93 in /  1013.4 hPa East 0.1 mph /  0.2 km/h 1.2 mph /  1.9 km/h 91 % 0.01 in /  0.25 mm
03:47 62.5 °F /  16.9 °C 59.8 °F /  15.4 °C 29.93 in /  1013.4 hPa East 0.5 mph /  0.8 km/h 2.3 mph /  3.7 km/h 91 % 0.01 in /  0.25 mm
03:52 62.4 °F /  16.9 °C 59.7 °F /  15.4 °C 29.94 in /  1013.8 hPa ENE 0.2 mph /  0.3 km/h 1.2 mph /  1.9 km/h 91 % 0.01 in /  0.25 mm
03:57 62.5 °F /  16.9 °C 59.8 °F /  15.4 °C 29.94 in /  1013.8 hPa East 0.3 mph /  0.5 km/h 2.3 mph /  3.7 km/h 91 % 0.01 in /  0.25 mm
04:02 62.5 °F /  16.9 °C 59.8 °F /  15.4 °C 29.94 in /  1013.8 hPa Calm     91 % 0.01 in /  0.25 mm
04:07 62.5 °F /  16.9 °C 59.8 °F /  15.4 °C 29.94 in /  1013.8 hPa East 0.1 mph /  0.2 km/h 1.2 mph /  1.9 km/h 91 % 0.01 in /  0.25 mm
04:12 62.5 °F /  16.9 °C 59.8 °F /  15.4 °C 29.94 in /  1013.8 hPa Calm     91 % 0.01 in /  0.25 mm
04:17 62.5 °F /  16.9 °C 59.8 °F /  15.4 °C 29.94 in /  1013.8 hPa Calm   1.2 mph /  1.9 km/h 91 % 0.01 in /  0.25 mm
04:22 62.5 °F /  16.9 °C 59.8 °F /  15.4 °C 29.94 in /  1013.8 hPa East 0.4 mph /  0.6 km/h 1.2 mph /  1.9 km/h 91 % 0.01 in /  0.25 mm
04:27 62.4 °F /  16.9 °C 59.7 °F /  15.4 °C 29.94 in /  1013.8 hPa East 0.2 mph /  0.3 km/h 2.0 mph /  3.2 km/h 91 % 0.00 in /  0 mm
04:32 62.4 °F /  16.9 °C 59.7 °F /  15.4 °C 29.94 in /  1013.8 hPa Calm   1.2 mph /  1.9 km/h 91 % 0.00 in /  0 mm
04:37 62.4 °F /  16.9 °C 59.7 °F /  15.4 °C 29.94 in /  1013.8 hPa East 0.2 mph /  0.3 km/h 1.2 mph /  1.9 km/h 91 % 0.00 in /  0 mm
04:42 62.4 °F /  16.9 °C 59.7 °F /  15.4 °C 29.94 in /  1013.8 hPa Calm     91 % 0.00 in /  0 mm
04:47 62.4 °F /  16.9 °C 59.7 °F /  15.4 °C 29.94 in /  1013.8 hPa Calm     91 % 0.00 in /  0 mm
04:52 62.5 °F /  16.9 °C 59.8 °F /  15.4 °C 29.95 in /  1014.1 hPa East 0.1 mph /  0.2 km/h 1.2 mph /  1.9 km/h 91 % 0.00 in /  0 mm
04:57 62.5 °F /  16.9 °C 59.8 °F /  15.4 °C 29.95 in /  1014.1 hPa Calm   1.2 mph /  1.9 km/h 91 % 0.00 in /  0 mm
05:02 62.5 °F /  16.9 °C 59.8 °F /  15.4 °C 29.95 in /  1014.1 hPa Calm   1.2 mph /  1.9 km/h 91 % 0.00 in /  0 mm
05:07 62.5 °F /  16.9 °C 59.8 °F /  15.4 °C 29.95 in /  1014.1 hPa Calm   1.2 mph /  1.9 km/h 91 % 0.00 in /  0 mm
05:12 62.5 °F /  16.9 °C 59.8 °F /  15.4 °C 29.95 in /  1014.1 hPa Calm   1.2 mph /  1.9 km/h 91 % 0.00 in /  0 mm
05:17 62.5 °F /  16.9 °C 59.8 °F /  15.4 °C 29.96 in /  1014.4 hPa Calm   1.0 mph /  1.6 km/h 91 % 0.00 in /  0 mm
05:22 62.5 °F /  16.9 °C 59.8 °F /  15.4 °C 29.96 in /  1014.4 hPa Calm     91 % 0.00 in /  0 mm
05:28 62.5 °F /  16.9 °C 59.8 °F /  15.4 °C 29.96 in /  1014.4 hPa Calm     91 % 0.01 in /  0.25 mm
05:33 62.5 °F /  16.9 °C 59.8 °F /  15.4 °C 29.96 in /  1014.4 hPa Calm     91 % 0.01 in /  0.25 mm
05:38 62.5 °F /  16.9 °C 59.8 °F /  15.4 °C 29.96 in /  1014.4 hPa Calm   1.2 mph /  1.9 km/h 91 % 0.01 in /  0.25 mm
05:43 62.5 °F /  16.9 °C 59.8 °F /  15.4 °C 29.97 in /  1014.8 hPa Calm     91 % 0.01 in /  0.25 mm
05:48 62.5 °F /  16.9 °C 59.8 °F /  15.4 °C 29.97 in /  1014.8 hPa Calm     91 % 0.01 in /  0.25 mm
05:53 62.6 °F /  17 °C 59.9 °F /  15.5 °C 29.97 in /  1014.8 hPa East 0.1 mph /  0.2 km/h 1.2 mph /  1.9 km/h 91 % 0.01 in /  0.25 mm
05:58 62.6 °F /  17 °C 59.9 °F /  15.5 °C 29.96 in /  1014.4 hPa Calm     91 % 0.01 in /  0.25 mm
06:03 62.6 °F /  17 °C 59.9 °F /  15.5 °C 29.97 in /  1014.8 hPa Calm     91 % 0.01 in /  0.25 mm
06:08 62.7 °F /  17.1 °C 60.0 °F /  15.6 °C 29.97 in /  1014.8 hPa Calm   1.2 mph /  1.9 km/h 91 % 0.01 in /  0.25 mm
06:13 62.7 °F /  17.1 °C 60.0 °F /  15.6 °C 29.97 in /  1014.8 hPa Calm     91 % 0.01 in /  0.25 mm
06:18 62.7 °F /  17.1 °C 60.0 °F /  15.6 °C 29.97 in /  1014.8 hPa East 0.1 mph /  0.2 km/h 1.2 mph /  1.9 km/h 91 % 0.01 in /  0.25 mm
06:23 62.8 °F /  17.1 °C 60.1 °F /  15.6 °C 29.97 in /  1014.8 hPa Calm     91 % 0.01 in /  0.25 mm
06:28 62.8 °F /  17.1 °C 60.1 °F /  15.6 °C 29.97 in /  1014.8 hPa Calm     91 % 0.00 in /  0 mm
06:33 62.9 °F /  17.2 °C 60.2 °F /  15.7 °C 29.97 in /  1014.8 hPa Calm     91 % 0.00 in /  0 mm
06:38 62.9 °F /  17.2 °C 60.2 °F /  15.7 °C 29.97 in /  1014.8 hPa Calm     91 % 0.00 in /  0 mm
06:43 63.0 °F /  17.2 °C 60.3 °F /  15.7 °C 29.97 in /  1014.8 hPa East 0.2 mph /  0.3 km/h 1.2 mph /  1.9 km/h 91 % 0.00 in /  0 mm
06:48 63.1 °F /  17.3 °C 60.4 °F /  15.8 °C 29.97 in /  1014.8 hPa East 0.2 mph /  0.3 km/h 1.2 mph /  1.9 km/h 91 % 0.00 in /  0 mm
06:53 63.2 °F /  17.3 °C 60.5 °F /  15.8 °C 29.97 in /  1014.8 hPa East 0.6 mph /  1 km/h 1.2 mph /  1.9 km/h 91 % 0.00 in /  0 mm
06:58 63.2 °F /  17.3 °C 60.5 °F /  15.8 °C 29.98 in /  1015.1 hPa East 0.3 mph /  0.5 km/h 1.2 mph /  1.9 km/h 91 % 0.00 in /  0 mm
07:03 63.3 °F /  17.4 °C 60.3 °F /  15.7 °C 29.98 in /  1015.1 hPa NE 0.2 mph /  0.3 km/h 2.3 mph /  3.7 km/h 90 % 0.00 in /  0 mm
07:08 63.3 °F /  17.4 °C 60.3 °F /  15.7 °C 29.99 in /  1015.5 hPa ENE 0.1 mph /  0.2 km/h 3.5 mph /  5.6 km/h 90 % 0.00 in /  0 mm
07:13 63.4 °F /  17.4 °C 60.4 °F /  15.8 °C 29.99 in /  1015.5 hPa Calm   1.2 mph /  1.9 km/h 90 % 0.00 in /  0 mm
07:18 63.4 °F /  17.4 °C 60.4 °F /  15.8 °C 29.99 in /  1015.5 hPa Calm     90 % 0.00 in /  0 mm
07:23 63.4 °F /  17.4 °C 60.4 °F /  15.8 °C 29.99 in /  1015.5 hPa Calm     90 % 0.00 in /  0 mm
07:28 63.4 °F /  17.4 °C 60.4 °F /  15.8 °C 30.00 in /  1015.8 hPa ENE 0.3 mph /  0.5 km/h 2.3 mph /  3.7 km/h 90 % 0.00 in /  0 mm
07:33 63.4 °F /  17.4 °C 60.4 °F /  15.8 °C 30.00 in /  1015.8 hPa NE 0.3 mph /  0.5 km/h 1.2 mph /  1.9 km/h 90 % 0.00 in /  0 mm
07:38 63.4 °F /  17.4 °C 60.4 °F /  15.8 °C 30.00 in /  1015.8 hPa ENE 1.8 mph /  2.9 km/h 2.3 mph /  3.7 km/h 90 % 0.00 in /  0 mm
07:43 63.5 °F /  17.5 °C 60.5 °F /  15.8 °C 30.00 in /  1015.8 hPa NE 0.7 mph /  1.1 km/h 2.3 mph /  3.7 km/h 90 % 0.00 in /  0 mm
07:48 63.4 °F /  17.4 °C 60.4 °F /  15.8 °C 30.00 in /  1015.8 hPa East 1.5 mph /  2.4 km/h 3.5 mph /  5.6 km/h 90 % 0.01 in /  0.25 mm
07:53 63.4 °F /  17.4 °C 60.4 °F /  15.8 °C 30.00 in /  1015.8 hPa NE 4.3 mph /  6.9 km/h 4.6 mph /  7.4 km/h 90 % 0.01 in /  0.25 mm
07:59 63.4 °F /  17.4 °C 60.4 °F /  15.8 °C 30.00 in /  1015.8 hPa NNE 1.5 mph /  2.4 km/h 4.6 mph /  7.4 km/h 90 % 0.01 in /  0.25 mm
08:04 63.4 °F /  17.4 °C 60.4 °F /  15.8 °C 30.00 in /  1015.8 hPa NE 3.9 mph /  6.3 km/h 5.8 mph /  9.3 km/h 90 % 0.01 in /  0.25 mm
08:09 63.2 °F /  17.3 °C 60.2 °F /  15.7 °C 30.00 in /  1015.8 hPa NE 3.6 mph /  5.8 km/h 6.9 mph /  11.1 km/h 90 % 0.01 in /  0.25 mm
08:14 63.2 °F /  17.3 °C 60.2 °F /  15.7 °C 30.01 in /  1016.1 hPa ENE 4.2 mph /  6.8 km/h 8.1 mph /  13 km/h 90 % 0.01 in /  0.25 mm
08:19 63.2 °F /  17.3 °C 60.2 °F /  15.7 °C 30.00 in /  1015.8 hPa NE 2.8 mph /  4.5 km/h 4.0 mph /  6.4 km/h 90 % 0.01 in /  0.25 mm
08:24 63.1 °F /  17.3 °C 60.1 °F /  15.6 °C 30.00 in /  1015.8 hPa East 0.6 mph /  1 km/h 2.3 mph /  3.7 km/h 90 % 0.01 in /  0.25 mm
08:29 63.2 °F /  17.3 °C 60.2 °F /  15.7 °C 30.01 in /  1016.1 hPa ENE 2.0 mph /  3.2 km/h 3.5 mph /  5.6 km/h 90 % 0.01 in /  0.25 mm
08:34 63.2 °F /  17.3 °C 60.2 °F /  15.7 °C 30.01 in /  1016.1 hPa ENE 0.1 mph /  0.2 km/h 1.2 mph /  1.9 km/h 90 % 0.01 in /  0.25 mm
08:39 63.3 °F /  17.4 °C 60.6 °F /  15.9 °C 30.01 in /  1016.1 hPa ENE 0.3 mph /  0.5 km/h 1.2 mph /  1.9 km/h 91 % 0.01 in /  0.25 mm
08:44 63.4 °F /  17.4 °C 60.4 °F /  15.8 °C 30.01 in /  1016.1 hPa NE 1.9 mph /  3.1 km/h 3.5 mph /  5.6 km/h 90 % 0.00 in /  0 mm
08:49 63.4 °F /  17.4 °C 60.4 °F /  15.8 °C 30.01 in /  1016.1 hPa NE 1.4 mph /  2.3 km/h 5.8 mph /  9.3 km/h 90 % 0.00 in /  0 mm
08:54 63.4 °F /  17.4 °C 60.4 °F /  15.8 °C 30.02 in /  1016.5 hPa ENE 1.5 mph /  2.4 km/h 5.0 mph /  8 km/h 90 % 0.00 in /  0 mm
08:59 63.4 °F /  17.4 °C 60.4 °F /  15.8 °C 30.02 in /  1016.5 hPa ENE 0.6 mph /  1 km/h 1.2 mph /  1.9 km/h 90 % 0.00 in /  0 mm
09:04 63.4 °F /  17.4 °C 60.1 °F /  15.6 °C 30.02 in /  1016.5 hPa ENE 1.9 mph /  3.1 km/h 3.5 mph /  5.6 km/h 89 % 0.00 in /  0 mm
09:09 63.5 °F /  17.5 °C 60.2 °F /  15.7 °C 30.02 in /  1016.5 hPa ENE 2.2 mph /  3.5 km/h 3.5 mph /  5.6 km/h 89 % 0.00 in /  0 mm
09:14 63.5 °F /  17.5 °C 60.2 °F /  15.7 °C 30.02 in /  1016.5 hPa ENE 2.2 mph /  3.5 km/h 4.6 mph /  7.4 km/h 89 % 0.00 in /  0 mm
09:19 63.5 °F /  17.5 °C 60.2 °F /  15.7 °C 30.02 in /  1016.5 hPa NE 4.4 mph /  7.1 km/h 7.0 mph /  11.3 km/h 89 % 0.00 in /  0 mm
09:25 63.4 °F /  17.4 °C 59.8 °F /  15.4 °C 30.02 in /  1016.5 hPa NE 2.8 mph /  4.5 km/h 3.5 mph /  5.6 km/h 88 % 0.00 in /  0 mm
09:29 63.4 °F /  17.4 °C 60.1 °F /  15.6 °C 30.02 in /  1016.5 hPa ENE 1.0 mph /  1.6 km/h 2.3 mph /  3.7 km/h 89 % 0.00 in /  0 mm
09:35 63.5 °F /  17.5 °C 60.2 °F /  15.7 °C 30.02 in /  1016.5 hPa ENE 0.7 mph /  1.1 km/h 3.0 mph /  4.8 km/h 89 % 0.00 in /  0 mm
09:40 63.5 °F /  17.5 °C 60.2 °F /  15.7 °C 30.02 in /  1016.5 hPa NE 0.7 mph /  1.1 km/h 3.5 mph /  5.6 km/h 89 % 0.00 in /  0 mm
09:45 63.5 °F /  17.5 °C 60.2 °F /  15.7 °C 30.03 in /  1016.8 hPa ENE 2.3 mph /  3.7 km/h 3.5 mph /  5.6 km/h 89 % 0.00 in /  0 mm
09:50 63.5 °F /  17.5 °C 60.2 °F /  15.7 °C 30.03 in /  1016.8 hPa ENE 1.0 mph /  1.6 km/h 3.5 mph /  5.6 km/h 89 % 0.00 in /  0 mm
09:55 63.6 °F /  17.6 °C 60.3 °F /  15.7 °C 30.03 in /  1016.8 hPa ENE 0.4 mph /  0.6 km/h 2.0 mph /  3.2 km/h 89 % 0.00 in /  0 mm
10:00 63.6 °F /  17.6 °C 60.3 °F /  15.7 °C 30.03 in /  1016.8 hPa ENE 1.5 mph /  2.4 km/h 3.5 mph /  5.6 km/h 89 % 0.00 in /  0 mm
10:05 63.5 °F /  17.5 °C 60.2 °F /  15.7 °C 30.04 in /  1017.2 hPa NE 2.6 mph /  4.2 km/h 3.5 mph /  5.6 km/h 89 % 0.00 in /  0 mm
10:10 63.5 °F /  17.5 °C 59.9 °F /  15.5 °C 30.04 in /  1017.2 hPa ENE 1.0 mph /  1.6 km/h 2.3 mph /  3.7 km/h 88 % 0.00 in /  0 mm
10:15 63.5 °F /  17.5 °C 59.9 °F /  15.5 °C 30.04 in /  1017.2 hPa ENE 0.3 mph /  0.5 km/h 1.2 mph /  1.9 km/h 88 % 0.00 in /  0 mm
10:20 63.5 °F /  17.5 °C 60.2 °F /  15.7 °C 30.03 in /  1016.8 hPa ENE 0.1 mph /  0.2 km/h   89 % 0.00 in /  0 mm
10:25 63.6 °F /  17.6 °C 60.3 °F /  15.7 °C 30.04 in /  1017.2 hPa Calm   1.2 mph /  1.9 km/h 89 % 0.01 in /  0.25 mm
10:30 63.7 °F /  17.6 °C 60.4 °F /  15.8 °C 30.04 in /  1017.2 hPa ENE 0.3 mph /  0.5 km/h 2.3 mph /  3.7 km/h 89 % 0.01 in /  0.25 mm
10:32 63.7 °F /  17.6 °C 60.4 °F /  15.8 °C 30.04 in /  1017.2 hPa ENE 0.6 mph /  1 km/h 2.3 mph /  3.7 km/h 89 % 0.01 in /  0.25 mm
10:36 63.8 °F /  17.7 °C 60.5 °F /  15.8 °C 30.04 in /  1017.2 hPa ENE 0.5 mph /  0.8 km/h 1.2 mph /  1.9 km/h 89 % 0.01 in /  0.25 mm
10:42 63.9 °F /  17.7 °C 60.6 °F /  15.9 °C 30.04 in /  1017.2 hPa NE 0.3 mph /  0.5 km/h 5.0 mph /  8 km/h 89 % 0.01 in /  0.25 mm
10:46 64.0 °F /  17.8 °C 60.7 °F /  15.9 °C 30.04 in /  1017.2 hPa NE 2.0 mph /  3.2 km/h 3.0 mph /  4.8 km/h 89 % 0.01 in /  0.25 mm
10:52 64.0 °F /  17.8 °C 60.4 °F /  15.8 °C 30.04 in /  1017.2 hPa ENE 0.4 mph /  0.6 km/h 1.2 mph /  1.9 km/h 88 % 0.01 in /  0.25 mm
10:57 64.0 °F /  17.8 °C 60.4 °F /  15.8 °C 30.05 in /  1017.5 hPa ENE 0.3 mph /  0.5 km/h 1.2 mph /  1.9 km/h 88 % 0.01 in /  0.25 mm
11:02 64.1 °F /  17.8 °C 60.5 °F /  15.8 °C 30.05 in /  1017.5 hPa Calm   1.2 mph /  1.9 km/h 88 % 0.01 in /  0.25 mm
11:07 64.3 °F /  17.9 °C 60.7 °F /  15.9 °C 30.05 in /  1017.5 hPa ENE 0.2 mph /  0.3 km/h 1.2 mph /  1.9 km/h 88 % 0.01 in /  0.25 mm
11:12 64.3 °F /  17.9 °C 60.7 °F /  15.9 °C 30.05 in /  1017.5 hPa ENE 0.2 mph /  0.3 km/h 1.2 mph /  1.9 km/h 88 % 0.01 in /  0.25 mm
11:17 64.3 °F /  17.9 °C 60.3 °F /  15.7 °C 30.06 in /  1017.8 hPa ENE 4.2 mph /  6.8 km/h 8.1 mph /  13 km/h 87 % 0.01 in /  0.25 mm
11:22 64.3 °F /  17.9 °C 60.7 °F /  15.9 °C 30.06 in /  1017.8 hPa NE 1.0 mph /  1.6 km/h 2.3 mph /  3.7 km/h 88 % 0.01 in /  0.25 mm
11:27 64.4 °F /  18 °C 60.8 °F /  16 °C 30.06 in /  1017.8 hPa NE 0.5 mph /  0.8 km/h 1.2 mph /  1.9 km/h 88 % 0.00 in /  0 mm
11:32 64.5 °F /  18.1 °C 60.9 °F /  16.1 °C 30.06 in /  1017.8 hPa NE 0.2 mph /  0.3 km/h 1.2 mph /  1.9 km/h 88 % 0.00 in /  0 mm
11:37 64.6 °F /  18.1 °C 61.0 °F /  16.1 °C 30.06 in /  1017.8 hPa NE 0.1 mph /  0.2 km/h 1.2 mph /  1.9 km/h 88 % 0.00 in /  0 mm
11:42 64.8 °F /  18.2 °C 61.2 °F /  16.2 °C 30.06 in /  1017.8 hPa NE 0.5 mph /  0.8 km/h 2.0 mph /  3.2 km/h 88 % 0.00 in /  0 mm
11:47 65.0 °F /  18.3 °C 60.7 °F /  15.9 °C 30.06 in /  1017.8 hPa NE 0.4 mph /  0.6 km/h 2.3 mph /  3.7 km/h 86 % 0.00 in /  0 mm
11:52 65.1 °F /  18.4 °C 61.1 °F /  16.2 °C 30.07 in /  1018.2 hPa NE 0.1 mph /  0.2 km/h 2.3 mph /  3.7 km/h 87 % 0.00 in /  0 mm
11:57 65.3 °F /  18.5 °C 61.0 °F /  16.1 °C 30.07 in /  1018.2 hPa NE 0.1 mph /  0.2 km/h 1.2 mph /  1.9 km/h 86 % 0.00 in /  0 mm
12:02 65.4 °F /  18.6 °C 61.1 °F /  16.2 °C 30.07 in /  1018.2 hPa NE 0.1 mph /  0.2 km/h 1.2 mph /  1.9 km/h 86 % 0.00 in /  0 mm
12:07 65.5 °F /  18.6 °C 61.2 °F /  16.2 °C 30.07 in /  1018.2 hPa NE 0.7 mph /  1.1 km/h 2.3 mph /  3.7 km/h 86 % 0.00 in /  0 mm
12:10 65.6 °F /  18.7 °C 61.3 °F /  16.3 °C 30.07 in /  1018.2 hPa ENE 0.3 mph /  0.5 km/h 1.2 mph /  1.9 km/h 86 % 0.00 in /  0 mm
12:15 65.7 °F /  18.7 °C 61.1 °F /  16.2 °C 30.07 in /  1018.2 hPa ENE 0.2 mph /  0.3 km/h 1.2 mph /  1.9 km/h 85 % 0.00 in /  0 mm
12:20 65.8 °F /  18.8 °C 61.5 °F /  16.4 °C 30.07 in /  1018.2 hPa Calm     86 % 0.00 in /  0 mm
12:25 65.9 °F /  18.8 °C 60.9 °F /  16.1 °C 30.07 in /  1018.2 hPa ENE 2.1 mph /  3.4 km/h 3.5 mph /  5.6 km/h 84 % 0.00 in /  0 mm
12:30 66.0 °F /  18.9 °C 61.4 °F /  16.3 °C 30.07 in /  1018.2 hPa ENE 0.4 mph /  0.6 km/h 2.0 mph /  3.2 km/h 85 % 0.00 in /  0 mm
12:35 66.2 °F /  19 °C 61.2 °F /  16.2 °C 30.07 in /  1018.2 hPa NE 0.4 mph /  0.6 km/h 3.5 mph /  5.6 km/h 84 % 0.00 in /  0 mm
12:40 66.3 °F /  19.1 °C 61.3 °F /  16.3 °C 30.07 in /  1018.2 hPa NE 2.4 mph /  3.9 km/h 3.5 mph /  5.6 km/h 84 % 0.00 in /  0 mm
12:45 66.6 °F /  19.2 °C 61.3 °F /  16.3 °C 30.07 in /  1018.2 hPa NW 0.5 mph /  0.8 km/h 1.2 mph /  1.9 km/h 83 % 0.00 in /  0 mm
12:50 66.8 °F /  19.3 °C 61.5 °F /  16.4 °C 30.07 in /  1018.2 hPa NE 0.2 mph /  0.3 km/h 3.5 mph /  5.6 km/h 83 % 0.00 in /  0 mm
12:55 67.0 °F /  19.4 °C 61.7 °F /  16.5 °C 30.07 in /  1018.2 hPa NE 2.4 mph /  3.9 km/h 3.5 mph /  5.6 km/h 83 % 0.00 in /  0 mm
13:00 67.2 °F /  19.6 °C 61.5 °F /  16.4 °C 30.07 in /  1018.2 hPa NE 0.1 mph /  0.2 km/h 3.5 mph /  5.6 km/h 82 % 0.00 in /  0 mm
13:05 67.4 °F /  19.7 °C 61.4 °F /  16.3 °C 30.07 in /  1018.2 hPa NE 1.9 mph /  3.1 km/h 4.6 mph /  7.4 km/h 81 % 0.00 in /  0 mm
13:10 67.6 °F /  19.8 °C 61.9 °F /  16.6 °C 30.07 in /  1018.2 hPa ENE 0.4 mph /  0.6 km/h 2.3 mph /  3.7 km/h 82 % 0.00 in /  0 mm
13:12 67.7 °F /  19.8 °C 61.7 °F /  16.5 °C 30.07 in /  1018.2 hPa ENE 0.2 mph /  0.3 km/h 3.5 mph /  5.6 km/h 81 % 0.00 in /  0 mm
13:17 68.1 °F /  20.1 °C 62.4 °F /  16.9 °C 30.07 in /  1018.2 hPa NE 0.5 mph /  0.8 km/h 3.5 mph /  5.6 km/h 82 % 0.00 in /  0 mm
13:22 68.7 °F /  20.4 °C 62.6 °F /  17 °C 30.07 in /  1018.2 hPa ENE 0.6 mph /  1 km/h 2.0 mph /  3.2 km/h 81 % 0.00 in /  0 mm
13:27 69.0 °F /  20.6 °C 62.6 °F /  17 °C 30.07 in /  1018.2 hPa NE 0.7 mph /  1.1 km/h 3.5 mph /  5.6 km/h 80 % 0.00 in /  0 mm
13:32 69.1 °F /  20.6 °C 62.3 °F /  16.8 °C 30.07 in /  1018.2 hPa NE 1.0 mph /  1.6 km/h 1.2 mph /  1.9 km/h 79 % 0.00 in /  0 mm
13:37 69.2 °F /  20.7 °C 62.0 °F /  16.7 °C 30.07 in /  1018.2 hPa NE 1.5 mph /  2.4 km/h 3.5 mph /  5.6 km/h 78 % 0.00 in /  0 mm
13:42 69.2 °F /  20.7 °C 61.7 °F /  16.5 °C 30.07 in /  1018.2 hPa NE 0.9 mph /  1.4 km/h 2.3 mph /  3.7 km/h 77 % 0.00 in /  0 mm
13:47 69.3 °F /  20.7 °C 61.8 °F /  16.6 °C 30.08 in /  1018.5 hPa ENE 1.5 mph /  2.4 km/h 3.0 mph /  4.8 km/h 77 % 0.00 in /  0 mm
13:52 69.3 °F /  20.7 °C 62.1 °F /  16.7 °C 30.08 in /  1018.5 hPa ENE 0.1 mph /  0.2 km/h 2.3 mph /  3.7 km/h 78 % 0.00 in /  0 mm
13:57 69.6 °F /  20.9 °C 62.8 °F /  17.1 °C 30.08 in /  1018.5 hPa NNE 0.1 mph /  0.2 km/h 1.2 mph /  1.9 km/h 79 % 0.00 in /  0 mm
14:02 70.1 °F /  21.2 °C 62.6 °F /  17 °C 30.08 in /  1018.5 hPa NE 1.9 mph /  3.1 km/h 3.5 mph /  5.6 km/h 77 % 0.00 in /  0 mm
14:04 70.2 °F /  21.2 °C 62.3 °F /  16.8 °C 30.08 in /  1018.5 hPa ENE 1.0 mph /  1.6 km/h 3.5 mph /  5.6 km/h 76 % 0.00 in /  0 mm
14:09 70.4 °F /  21.3 °C 62.1 °F /  16.7 °C 30.08 in /  1018.5 hPa NE 0.9 mph /  1.4 km/h 3.5 mph /  5.6 km/h 75 % 0.00 in /  0 mm
14:14 70.6 °F /  21.4 °C 62.7 °F /  17.1 °C 30.08 in /  1018.5 hPa NE 0.8 mph /  1.3 km/h 3.5 mph /  5.6 km/h 76 % 0.00 in /  0 mm
14:19 70.9 °F /  21.6 °C 63.3 °F /  17.4 °C 30.08 in /  1018.5 hPa NE 0.2 mph /  0.3 km/h 3.5 mph /  5.6 km/h 77 % 0.00 in /  0 mm
14:24 71.0 °F /  21.7 °C 62.3 °F /  16.8 °C 30.08 in /  1018.5 hPa NE 0.5 mph /  0.8 km/h 3.5 mph /  5.6 km/h 74 % 0.00 in /  0 mm
14:29 71.0 °F /  21.7 °C 63.4 °F /  17.4 °C 30.08 in /  1018.5 hPa Calm   1.2 mph /  1.9 km/h 77 % 0.00 in /  0 mm
14:34 71.2 °F /  21.8 °C 63.6 °F /  17.6 °C 30.08 in /  1018.5 hPa NE 0.1 mph /  0.2 km/h 1.2 mph /  1.9 km/h 77 % 0.01 in /  0.25 mm
14:39 71.5 °F /  21.9 °C 63.5 °F /  17.5 °C 30.08 in /  1018.5 hPa NE 0.2 mph /  0.3 km/h 1.2 mph /  1.9 km/h 76 % 0.01 in /  0.25 mm
14:44 71.7 °F /  22.1 °C 63.4 °F /  17.4 °C 30.08 in /  1018.5 hPa NE 0.5 mph /  0.8 km/h 3.5 mph /  5.6 km/h 75 % 0.01 in /  0.25 mm
14:49 71.6 °F /  22 °C 62.5 °F /  16.9 °C 30.09 in /  1018.8 hPa ENE 0.5 mph /  0.8 km/h 2.0 mph /  3.2 km/h 73 % 0.01 in /  0.25 mm
14:54 71.4 °F /  21.9 °C 62.3 °F /  16.8 °C 30.09 in /  1018.8 hPa NE 1.9 mph /  3.1 km/h 3.5 mph /  5.6 km/h 73 % 0.01 in /  0.25 mm
14:59 71.3 °F /  21.8 °C 63.3 °F /  17.4 °C 30.09 in /  1018.8 hPa ENE 0.7 mph /  1.1 km/h 3.0 mph /  4.8 km/h 76 % 0.01 in /  0.25 mm
15:04 70.9 °F /  21.6 °C 62.2 °F /  16.8 °C 30.09 in /  1018.8 hPa NNE 0.9 mph /  1.4 km/h 3.5 mph /  5.6 km/h 74 % 0.01 in /  0.25 mm
15:09 70.5 °F /  21.4 °C 61.8 °F /  16.6 °C 30.09 in /  1018.8 hPa NNE 0.2 mph /  0.3 km/h 2.3 mph /  3.7 km/h 74 % 0.01 in /  0.25 mm
15:14 70.5 °F /  21.4 °C 62.9 °F /  17.2 °C 30.09 in /  1018.8 hPa Calm     77 % 0.01 in /  0.25 mm
15:19 70.4 °F /  21.3 °C 62.8 °F /  17.1 °C 30.09 in /  1018.8 hPa NE 1.1 mph /  1.8 km/h 3.0 mph /  4.8 km/h 77 % 0.01 in /  0.25 mm
15:24 70.4 °F /  21.3 °C 63.2 °F /  17.3 °C 30.09 in /  1018.8 hPa Calm     78 % 0.01 in /  0.25 mm
15:29 70.4 °F /  21.3 °C 62.1 °F /  16.7 °C 30.09 in /  1018.8 hPa Calm   1.2 mph /  1.9 km/h 75 % 0.01 in /  0.25 mm
15:34 70.4 °F /  21.3 °C 62.8 °F /  17.1 °C 30.09 in /  1018.8 hPa Calm     77 % 0.00 in /  0 mm
15:39 70.4 °F /  21.3 °C 62.5 °F /  16.9 °C 30.09 in /  1018.8 hPa ENE 1.2 mph /  1.9 km/h 3.5 mph /  5.6 km/h 76 % 0.00 in /  0 mm
15:44 70.4 °F /  21.3 °C 62.1 °F /  16.7 °C 30.09 in /  1018.8 hPa NE 0.6 mph /  1 km/h 1.2 mph /  1.9 km/h 75 % 0.00 in /  0 mm
15:49 70.3 °F /  21.3 °C 62.0 °F /  16.7 °C 30.09 in /  1018.8 hPa Calm   2.3 mph /  3.7 km/h 75 % 0.00 in /  0 mm
15:54 70.3 °F /  21.3 °C 62.4 °F /  16.9 °C 30.09 in /  1018.8 hPa Calm     76 % 0.00 in /  0 mm
15:59 70.4 °F /  21.3 °C 62.8 °F /  17.1 °C 30.09 in /  1018.8 hPa Calm   1.2 mph /  1.9 km/h 77 % 0.00 in /  0 mm
16:04 70.3 °F /  21.3 °C 62.0 °F /  16.7 °C 30.09 in /  1018.8 hPa Calm   3.5 mph /  5.6 km/h 75 % 0.00 in /  0 mm
16:09 70.3 °F /  21.3 °C 62.7 °F /  17.1 °C 30.09 in /  1018.8 hPa NE 0.1 mph /  0.2 km/h 2.3 mph /  3.7 km/h 77 % 0.00 in /  0 mm
16:14 70.3 °F /  21.3 °C 62.4 °F /  16.9 °C 30.10 in /  1019.2 hPa Calm     76 % 0.00 in /  0 mm
16:19 70.3 °F /  21.3 °C 62.7 °F /  17.1 °C 30.10 in /  1019.2 hPa Calm   1.2 mph /  1.9 km/h 77 % 0.00 in /  0 mm
16:24 70.3 °F /  21.3 °C 62.4 °F /  16.9 °C 30.10 in /  1019.2 hPa ENE 1.5 mph /  2.4 km/h 2.3 mph /  3.7 km/h 76 % 0.00 in /  0 mm
16:29 70.2 °F /  21.2 °C 62.6 °F /  17 °C 30.10 in /  1019.2 hPa Calm     77 % 0.00 in /  0 mm
16:34 70.3 °F /  21.3 °C 63.1 °F /  17.3 °C 30.10 in /  1019.2 hPa Calm   1.2 mph /  1.9 km/h 78 % 0.00 in /  0 mm
16:39 70.2 °F /  21.2 °C 62.6 °F /  17 °C 30.10 in /  1019.2 hPa Calm     77 % 0.00 in /  0 mm
16:45 70.2 °F /  21.2 °C 62.6 °F /  17 °C 30.10 in /  1019.2 hPa NE 0.9 mph /  1.4 km/h 2.3 mph /  3.7 km/h 77 % 0.00 in /  0 mm
16:50 70.1 °F /  21.2 °C 62.2 °F /  16.8 °C 30.10 in /  1019.2 hPa Calm   1.2 mph /  1.9 km/h 76 % 0.00 in /  0 mm
16:55 70.2 °F /  21.2 °C 62.6 °F /  17 °C 30.10 in /  1019.2 hPa ENE 1.6 mph /  2.6 km/h 3.5 mph /  5.6 km/h 77 % 0.00 in /  0 mm
17:00 70.2 °F /  21.2 °C 62.3 °F /  16.8 °C 30.10 in /  1019.2 hPa NE 0.5 mph /  0.8 km/h 2.3 mph /  3.7 km/h 76 % 0.00 in /  0 mm
17:05 70.1 °F /  21.2 °C 61.8 °F /  16.6 °C 30.10 in /  1019.2 hPa ENE 0.5 mph /  0.8 km/h 2.3 mph /  3.7 km/h 75 % 0.00 in /  0 mm
17:10 70.0 °F /  21.1 °C 62.1 °F /  16.7 °C 30.10 in /  1019.2 hPa Calm   1.0 mph /  1.6 km/h 76 % 0.00 in /  0 mm
17:15 69.8 °F /  21 °C 61.9 °F /  16.6 °C 30.10 in /  1019.2 hPa Calm   1.2 mph /  1.9 km/h 76 % 0.00 in /  0 mm
17:20 69.7 °F /  20.9 °C 61.8 °F /  16.6 °C 30.10 in /  1019.2 hPa Calm     76 % 0.00 in /  0 mm
17:25 69.5 °F /  20.8 °C 62.3 °F /  16.8 °C 30.10 in /  1019.2 hPa Calm     78 % 0.00 in /  0 mm
17:30 69.4 °F /  20.8 °C 61.9 °F /  16.6 °C 30.10 in /  1019.2 hPa Calm   1.2 mph /  1.9 km/h 77 % 0.00 in /  0 mm
17:35 69.2 °F /  20.7 °C 62.0 °F /  16.7 °C 30.10 in /  1019.2 hPa Calm     78 % 0.00 in /  0 mm
17:40 69.1 °F /  20.6 °C 61.9 °F /  16.6 °C 30.10 in /  1019.2 hPa Calm   1.0 mph /  1.6 km/h 78 % 0.00 in /  0 mm
17:45 69.0 °F /  20.6 °C 61.9 °F /  16.6 °C 30.10 in /  1019.2 hPa Calm     78 % 0.00 in /  0 mm
17:50 68.9 °F /  20.5 °C 62.1 °F /  16.7 °C 30.10 in /  1019.2 hPa Calm     79 % 0.00 in /  0 mm
17:55 68.8 °F /  20.4 °C 61.7 °F /  16.5 °C 30.10 in /  1019.2 hPa Calm     78 % 0.00 in /  0 mm
18:00 68.7 °F /  20.4 °C 61.9 °F /  16.6 °C 30.10 in /  1019.2 hPa Calm   1.2 mph /  1.9 km/h 79 % 0.00 in /  0 mm
18:05 68.6 °F /  20.3 °C 61.8 °F /  16.6 °C 30.10 in /  1019.2 hPa ENE 0.9 mph /  1.4 km/h 1.0 mph /  1.6 km/h 79 % 0.00 in /  0 mm
18:10 68.5 °F /  20.3 °C 62.1 °F /  16.7 °C 30.10 in /  1019.2 hPa ENE 0.2 mph /  0.3 km/h 1.2 mph /  1.9 km/h 80 % 0.00 in /  0 mm
18:15 68.4 °F /  20.2 °C 61.3 °F /  16.3 °C 30.11 in /  1019.5 hPa Calm   1.2 mph /  1.9 km/h 78 % 0.00 in /  0 mm
18:17 68.4 °F /  20.2 °C 61.3 °F /  16.3 °C 30.11 in /  1019.5 hPa ENE 0.1 mph /  0.2 km/h 1.2 mph /  1.9 km/h 78 % 0.00 in /  0 mm
18:22 68.3 °F /  20.2 °C 61.9 °F /  16.6 °C 30.11 in /  1019.5 hPa Calm   1.2 mph /  1.9 km/h 80 % 0.00 in /  0 mm
18:27 68.2 °F /  20.1 °C 61.4 °F /  16.3 °C 30.11 in /  1019.5 hPa Calm     79 % 0.00 in /  0 mm
18:32 68.2 °F /  20.1 °C 61.8 °F /  16.6 °C 30.11 in /  1019.5 hPa Calm     80 % 0.00 in /  0 mm
18:37 68.2 °F /  20.1 °C 61.8 °F /  16.6 °C 30.11 in /  1019.5 hPa Calm   1.2 mph /  1.9 km/h 80 % 0.00 in /  0 mm
18:42 68.1 °F /  20.1 °C 61.3 °F /  16.3 °C 30.11 in /  1019.5 hPa Calm   1.2 mph /  1.9 km/h 79 % 0.00 in /  0 mm
18:47 68.1 °F /  20.1 °C 61.7 °F /  16.5 °C 30.11 in /  1019.5 hPa NNE 0.4 mph /  0.6 km/h 2.0 mph /  3.2 km/h 80 % 0.00 in /  0 mm
18:52 68.1 °F /  20.1 °C 61.7 °F /  16.5 °C 30.11 in /  1019.5 hPa NNE 1.2 mph /  1.9 km/h 2.0 mph /  3.2 km/h 80 % 0.00 in /  0 mm
18:57 68.1 °F /  20.1 °C 61.7 °F /  16.5 °C 30.12 in /  1019.9 hPa Calm   1.2 mph /  1.9 km/h 80 % 0.00 in /  0 mm
19:02 68.1 °F /  20.1 °C 62.0 °F /  16.7 °C 30.12 in /  1019.9 hPa NNE 0.4 mph /  0.6 km/h 2.3 mph /  3.7 km/h 81 % 0.00 in /  0 mm
19:05 68.1 °F /  20.1 °C 61.7 °F /  16.5 °C 30.12 in /  1019.9 hPa NNE 0.1 mph /  0.2 km/h 2.0 mph /  3.2 km/h 80 % 0.00 in /  0 mm
19:10 68.0 °F /  20 °C 61.9 °F /  16.6 °C 30.12 in /  1019.9 hPa NNE 0.1 mph /  0.2 km/h 1.2 mph /  1.9 km/h 81 % 0.00 in /  0 mm
19:15 68.0 °F /  20 °C 61.6 °F /  16.4 °C 30.12 in /  1019.9 hPa NNE 1.2 mph /  1.9 km/h 3.5 mph /  5.6 km/h 80 % 0.00 in /  0 mm
19:20 67.9 °F /  19.9 °C 61.5 °F /  16.4 °C 30.12 in /  1019.9 hPa NNE 1.5 mph /  2.4 km/h 3.5 mph /  5.6 km/h 80 % 0.00 in /  0 mm
19:25 67.9 °F /  19.9 °C 61.9 °F /  16.6 °C 30.12 in /  1019.9 hPa North 2.2 mph /  3.5 km/h 3.5 mph /  5.6 km/h 81 % 0.00 in /  0 mm
19:30 67.8 °F /  19.9 °C 61.4 °F /  16.3 °C 30.13 in /  1020.2 hPa Calm     80 % 0.00 in /  0 mm
19:35 67.7 °F /  19.8 °C 61.3 °F /  16.3 °C 30.13 in /  1020.2 hPa Calm     80 % 0.00 in /  0 mm
19:41 67.7 °F /  19.8 °C 61.7 °F /  16.5 °C 30.13 in /  1020.2 hPa Calm   2.0 mph /  3.2 km/h 81 % 0.00 in /  0 mm
19:46 67.6 °F /  19.8 °C 61.2 °F /  16.2 °C 30.13 in /  1020.2 hPa WNW 1.0 mph /  1.6 km/h 3.0 mph /  4.8 km/h 80 % 0.00 in /  0 mm
19:51 67.5 °F /  19.7 °C 61.5 °F /  16.4 °C 30.13 in /  1020.2 hPa Calm   3.0 mph /  4.8 km/h 81 % 0.00 in /  0 mm
19:56 67.4 °F /  19.7 °C 61.4 °F /  16.3 °C 30.13 in /  1020.2 hPa Calm   2.0 mph /  3.2 km/h 81 % 0.00 in /  0 mm
20:01 67.3 °F /  19.6 °C 61.3 °F /  16.3 °C 30.14 in /  1020.5 hPa Calm     81 % 0.00 in /  0 mm
20:06 67.3 °F /  19.6 °C 61.3 °F /  16.3 °C 30.14 in /  1020.5 hPa Calm     81 % 0.00 in /  0 mm
20:11 67.2 °F /  19.6 °C 61.5 °F /  16.4 °C 30.14 in /  1020.5 hPa Calm   2.3 mph /  3.7 km/h 82 % 0.00 in /  0 mm
20:16 67.1 °F /  19.5 °C 61.4 °F /  16.3 °C 30.13 in /  1020.2 hPa WNW 1.0 mph /  1.6 km/h 2.3 mph /  3.7 km/h 82 % 0.00 in /  0 mm
20:21 67.0 °F /  19.4 °C 61.3 °F /  16.3 °C 30.13 in /  1020.2 hPa Calm   1.2 mph /  1.9 km/h 82 % 0.00 in /  0 mm
20:26 66.9 °F /  19.4 °C 61.2 °F /  16.2 °C 30.13 in /  1020.2 hPa Calm   1.2 mph /  1.9 km/h 82 % 0.00 in /  0 mm
20:31 66.8 °F /  19.3 °C 61.1 °F /  16.2 °C 30.14 in /  1020.5 hPa WNW 0.2 mph /  0.3 km/h 1.2 mph /  1.9 km/h 82 % 0.00 in /  0 mm
20:36 66.8 °F /  19.3 °C 61.5 °F /  16.4 °C 30.14 in /  1020.5 hPa WNW 0.3 mph /  0.5 km/h 1.2 mph /  1.9 km/h 83 % 0.00 in /  0 mm
20:41 66.7 °F /  19.3 °C 61.4 °F /  16.3 °C 30.14 in /  1020.5 hPa Calm     83 % 0.00 in /  0 mm
20:46 66.7 °F /  19.3 °C 61.4 °F /  16.3 °C 30.14 in /  1020.5 hPa Calm     83 % 0.00 in /  0 mm
20:51 66.6 °F /  19.2 °C 61.3 °F /  16.3 °C 30.14 in /  1020.5 hPa WNW 0.3 mph /  0.5 km/h 1.2 mph /  1.9 km/h 83 % 0.00 in /  0 mm
20:56 66.6 °F /  19.2 °C 61.3 °F /  16.3 °C 30.14 in /  1020.5 hPa Calm   1.2 mph /  1.9 km/h 83 % 0.00 in /  0 mm
21:01 66.5 °F /  19.2 °C 61.2 °F /  16.2 °C 30.14 in /  1020.5 hPa Calm     83 % 0.00 in /  0 mm
21:06 66.5 °F /  19.2 °C 61.2 °F /  16.2 °C 30.15 in /  1020.9 hPa Calm     83 % 0.00 in /  0 mm
21:11 66.5 °F /  19.2 °C 61.5 °F /  16.4 °C 30.15 in /  1020.9 hPa North 2.3 mph /  3.7 km/h 3.5 mph /  5.6 km/h 84 % 0.00 in /  0 mm
21:17 66.5 °F /  19.2 °C 61.5 °F /  16.4 °C 30.15 in /  1020.9 hPa North 0.7 mph /  1.1 km/h 2.0 mph /  3.2 km/h 84 % 0.00 in /  0 mm
21:22 66.4 °F /  19.1 °C 61.1 °F /  16.2 °C 30.15 in /  1020.9 hPa NNE 2.1 mph /  3.4 km/h 4.6 mph /  7.4 km/h 83 % 0.00 in /  0 mm
21:27 66.4 °F /  19.1 °C 61.1 °F /  16.2 °C 30.15 in /  1020.9 hPa NNE 1.1 mph /  1.8 km/h 4.6 mph /  7.4 km/h 83 % 0.00 in /  0 mm
21:32 66.5 °F /  19.2 °C 61.8 °F /  16.6 °C 30.15 in /  1020.9 hPa Calm     85 % 0.00 in /  0 mm
21:37 66.6 °F /  19.2 °C 62.3 °F /  16.8 °C 30.16 in /  1021.2 hPa Calm   1.2 mph /  1.9 km/h 86 % 0.00 in /  0 mm
21:42 66.6 °F /  19.2 °C 61.9 °F /  16.6 °C 30.16 in /  1021.2 hPa NNE 0.1 mph /  0.2 km/h 1.2 mph /  1.9 km/h 85 % 0.00 in /  0 mm
21:47 66.6 °F /  19.2 °C 61.9 °F /  16.6 °C 30.16 in /  1021.2 hPa NNE 0.2 mph /  0.3 km/h 1.2 mph /  1.9 km/h 85 % 0.00 in /  0 mm
21:52 66.6 °F /  19.2 °C 61.9 °F /  16.6 °C 30.16 in /  1021.2 hPa Calm   1.2 mph /  1.9 km/h 85 % 0.00 in /  0 mm
21:57 66.5 °F /  19.2 °C 61.8 °F /  16.6 °C 30.16 in /  1021.2 hPa Calm   1.2 mph /  1.9 km/h 85 % 0.00 in /  0 mm
22:02 66.5 °F /  19.2 °C 61.8 °F /  16.6 °C 30.16 in /  1021.2 hPa Calm     85 % 0.00 in /  0 mm
22:07 66.5 °F /  19.2 °C 62.2 °F /  16.8 °C 30.16 in /  1021.2 hPa Calm     86 % 0.00 in /  0 mm
22:12 66.4 °F /  19.1 °C 62.1 °F /  16.7 °C 30.16 in /  1021.2 hPa Calm     86 % 0.00 in /  0 mm
22:17 66.3 °F /  19.1 °C 62.0 °F /  16.7 °C 30.17 in /  1021.6 hPa Calm     86 % 0.00 in /  0 mm
22:22 66.3 °F /  19.1 °C 62.0 °F /  16.7 °C 30.17 in /  1021.6 hPa Calm     86 % 0.00 in /  0 mm
22:27 66.2 °F /  19 °C 61.6 °F /  16.4 °C 30.17 in /  1021.6 hPa Calm     85 % 0.00 in /  0 mm
22:32 66.2 °F /  19 °C 61.6 °F /  16.4 °C 30.17 in /  1021.6 hPa NNE 0.1 mph /  0.2 km/h 1.2 mph /  1.9 km/h 85 % 0.00 in /  0 mm
22:37 66.2 °F /  19 °C 61.6 °F /  16.4 °C 30.17 in /  1021.6 hPa NNE 0.3 mph /  0.5 km/h 1.0 mph /  1.6 km/h 85 % 0.00 in /  0 mm
22:42 66.1 °F /  18.9 °C 61.5 °F /  16.4 °C 30.17 in /  1021.6 hPa Calm     85 % 0.00 in /  0 mm
22:47 66.1 °F /  18.9 °C 61.8 °F /  16.6 °C 30.17 in /  1021.6 hPa Calm     86 % 0.00 in /  0 mm
22:52 66.1 °F /  18.9 °C 61.8 °F /  16.6 °C 30.17 in /  1021.6 hPa NE 0.1 mph /  0.2 km/h 1.2 mph /  1.9 km/h 86 % 0.00 in /  0 mm
22:57 66.0 °F /  18.9 °C 61.7 °F /  16.5 °C 30.17 in /  1021.6 hPa Calm   1.2 mph /  1.9 km/h 86 % 0.00 in /  0 mm
23:02 65.9 °F /  18.8 °C 61.6 °F /  16.4 °C 30.17 in /  1021.6 hPa Calm     86 % 0.00 in /  0 mm
23:07 65.9 °F /  18.8 °C 61.6 °F /  16.4 °C 30.17 in /  1021.6 hPa Calm     86 % 0.00 in /  0 mm
23:13 65.9 °F /  18.8 °C 61.6 °F /  16.4 °C 30.17 in /  1021.6 hPa Calm     86 % 0.00 in /  0 mm
23:18 65.9 °F /  18.8 °C 61.6 °F /  16.4 °C 30.17 in /  1021.6 hPa ENE 0.1 mph /  0.2 km/h 1.2 mph /  1.9 km/h 86 % 0.00 in /  0 mm
23:23 65.8 °F /  18.8 °C 61.5 °F /  16.4 °C 30.18 in /  1021.9 hPa Calm     86 % 0.00 in /  0 mm
23:28 65.8 °F /  18.8 °C 61.8 °F /  16.6 °C 30.18 in /  1021.9 hPa Calm     87 % 0.00 in /  0 mm
23:33 65.8 °F /  18.8 °C 61.8 °F /  16.6 °C 30.18 in /  1021.9 hPa SSE 0.3 mph /  0.5 km/h 2.3 mph /  3.7 km/h 87 % 0.00 in /  0 mm
23:38 65.8 °F /  18.8 °C 61.8 °F /  16.6 °C 30.18 in /  1021.9 hPa Calm   2.3 mph /  3.7 km/h 87 % 0.00 in /  0 mm
23:43 65.7 °F /  18.7 °C 61.7 °F /  16.5 °C 30.17 in /  1021.6 hPa SE 0.3 mph /  0.5 km/h 2.3 mph /  3.7 km/h 87 % 0.00 in /  0 mm
23:48 65.7 °F /  18.7 °C 61.7 °F /  16.5 °C 30.18 in /  1021.9 hPa SE 0.1 mph /  0.2 km/h 1.2 mph /  1.9 km/h 87 % 0.00 in /  0 mm
23:53 65.6 °F /  18.7 °C 61.6 °F /  16.4 °C 30.17 in /  1021.6 hPa ENE 0.2 mph /  0.3 km/h 2.0 mph /  3.2 km/h 87 % 0.00 in /  0 mm
23:58 65.6 °F /  18.7 °C 61.0 °F /  16.1 °C 30.17 in /  1021.6 hPa ENE 0.4 mph /  0.6 km/h 1.2 mph /  1.9 km/h 85 % 0.00 in /  0 mm
Crab Meadow Weather
Compliments of Weather Underground - 3 mb

Script developed by  Jim McMurry - jmcmurry@mwt.net Adapted for the template by  Wim van der Kuil - Leuven-Template.eu

Clouds: Mostly sunny and mostly clear indicate the same amount of cloud coverage - about 25 percent. Mostly sunny is used during the daytime, and mostly clear is used at night when there is no sun.